Nearby METAR Reports

 

KBJC - Broomfield/Jeffc, Colorado, USA
Distance from station: SSW 3mi, 5km
Updated: Tue, 11-Dec-2018 11:47am MST
Partly cloudy
Partly cloudy
 Wind from WNW
Wind: WNW 20 mph , 31 km/h, Gust: 31 mph , 50 km/h
Temperature: 57°F , 14°C
Dew Point: 9°F , -13°C
Humidity: 14%
Barometer: 29.98 inHg , 1015.2 hPa
Clouds: Partly cloudy
Visibility: 50 miles , 80 km
Cloud details: Few Clouds 7000 ft
Few Clouds 12000 ft
Partly cloudy 22000 ft
2018/12/11 18:47 KBJC 111847Z 29017G27KT 50SM FEW070 FEW120 SCT220 14/M13 A2998
KEIK - Erie Muni, Colorado, USA
Distance from station: N 5mi, 9km
Updated: Tue, 11-Dec-2018 12:12pm MST
Clear
Clear
 Wind from W
Wind: W 24 mph , 39 km/h, Gust: 32 mph , 52 km/h
Temperature: 57°F , 14°C
Dew Point: 9°F , -13°C
Humidity: 14%
Barometer: 29.99 inHg , 1015.6 hPa
Clouds: Clear
Visibility: 10 miles , 16 km
2018/12/11 19:12 KEIK 111912Z AUTO 27021G28KT 10SM CLR 14/M13 A2999 RMK AO2 T01401134
 
KBDU - Boulder Muni, Colorado, USA
Distance from station: NW 11mi, 17km
Updated: Tue, 11-Dec-2018 12:12pm MST
Clear
Clear
 Wind from W
Wind: W 22 mph , 35 km/h, Gust: 41 mph , 67 km/h
Temperature: 55°F , 13°C
Dew Point: 12°F , -11°C
Humidity: 18%
Barometer: 29.93 inHg , 1013.5 hPa
Clouds: Clear
Visibility: 10 miles , 16 km
2018/12/11 19:12 KBDU 111912Z AUTO 27019G36KT 10SM CLR 13/M11 A2993 RMK AO2
KLMO - Longmont/Vbrand, Colorado, USA
Distance from station: NNW 16mi, 27km
Updated: Tue, 11-Dec-2018 12:15pm MST
Clear
Clear
 Wind from W
Wind: W 18 mph , 30 km/h, Gust: 32 mph , 52 km/h
Temperature: 59°F , 15°C
Dew Point: 10°F , -12°C
Humidity: 14%
Barometer: 29.97 inHg , 1014.9 hPa
Clouds: Clear
Visibility: 10 miles , 16 km
2018/12/11 19:15 KLMO 111915Z AUTO 26016G28KT 10SM CLR 15/M12 A2997 RMK AO2 T01471120
 
KBKF - Buckley Angb/Den, Colorado, USA
Distance from station: SE 23mi, 37km
Updated: Tue, 11-Dec-2018 11:58am MST
Partly cloudy
Partly cloudy
 Wind from calm
Wind: Calm
Temperature: 57°F , 14°C
Dew Point: 12°F , -11°C
Humidity: 17%
Barometer: 29.96 inHg , 1014.6 hPa
Clouds: Partly cloudy
Visibility: 10 miles , 16 km
Cloud details: Few Clouds 8000 ft
Partly cloudy 20000 ft
2018/12/11 18:58 KBKF 111858Z 00000KT 10SM FEW080 SCT200 14/M11 A2996 RMK AO2A SLP109 T01381109
KDEN - Denver (dia), Colorado, USA
Distance from station: ESE 23mi, 37km
Updated: Tue, 11-Dec-2018 11:53am MST
Partly cloudy
Partly cloudy
 Wind from NW
Wind: NW 26 mph , 43 km/h, Gust: 38 mph , 61 km/h
Temperature: 57°F , 14°C
Dew Point: 9°F , -13°C
Humidity: 14%
Barometer: 29.94 inHg , 1013.9 hPa
Clouds: Partly cloudy
Visibility: 10 miles , 16 km
Cloud details: Few Clouds 11000 ft
Partly cloudy 22000 ft
2018/12/11 18:53 KDEN 111853Z 31023G33KT 10SM FEW110 SCT220 14/M13 A2994 RMK AO2 PK WND 30033/1846 SLP103 T01441128
 
KAPA - Denver/Arapahoe, Colorado, USA
Distance from station: SSE 28mi, 46km
Updated: Tue, 11-Dec-2018 11:53am MST
Partly cloudy
Partly cloudy
 Wind from varies
Wind: varies 3 mph , 6 km/h
Temperature: 55°F , 13°C
Dew Point: 12°F , -11°C
Humidity: 18%
Barometer: 29.96 inHg , 1014.6 hPa
Clouds: Partly cloudy
Visibility: 10 miles , 16 km
Cloud details: Few Clouds 9000 ft
Few Clouds 13000 ft
Partly cloudy 22000 ft
2018/12/11 18:53 KAPA 111853Z VRB03KT 10SM FEW090 FEW130 SCT220 13/M11 A2996 RMK AO2 SLP133 ACSL DSNT S AND N T01331106
KFTG - Denver F. Range, Colorado, USA
Distance from station: ESE 30mi, 48km
Updated: Tue, 11-Dec-2018 11:52am MST
Partly cloudy
Partly cloudy
 Wind from WNW
Wind: WNW 21 mph , 33 km/h, Gust: 30 mph , 48 km/h
Temperature: 59°F , 15°C
Dew Point: 10°F , -12°C
Humidity: 14%
Barometer: 29.96 inHg , 1014.6 hPa
Clouds: Partly cloudy
Visibility: 10 miles , 16 km
Cloud details: Few Clouds 12000 ft
Partly cloudy 20000 ft
2018/12/11 18:52 KFTG 111852Z 30018G26KT 10SM FEW120 SCT200 15/M12 A2996
 
KFNL - Ft Collins/Lovel, Colorado, USA
Distance from station: N 35mi, 57km
Updated: Tue, 11-Dec-2018 11:56am MST
Clear
Clear
 Wind from W
Wind: W 15 mph , 24 km/h, Gust: 21 mph , 33 km/h
Temperature: 57°F , 14°C
Dew Point: 12°F , -11°C
Humidity: 17%
Barometer: 29.94 inHg , 1013.9 hPa
Clouds: Clear
Visibility: 10 miles , 16 km
2018/12/11 18:56 KFNL 111856Z AUTO 27013G18KT 10SM CLR 14/M11 A2994 RMK AO2 PK WND 27026/1815 SLP126 T01391111 PNO $
K0CO - Berthoud Pass, Colorado, USA
Distance from station: WSW 38mi, 61km
Updated: Tue, 11-Dec-2018 12:24pm MST
Partly cloudy
Partly cloudy
 Wind from WNW
Wind: WNW 39 mph , 63 km/h, Gust: 51 mph , 81 km/h
Temperature: 18°F , -8°C
Wind Chill: -3°F , -19°C
Dew Point: 5°F , -15°C
Humidity: 58%
Barometer: 30.07 inHg , 1018.3 hPa
Clouds: Partly cloudy
Visibility: 7 miles , 11 km
Cloud details: Partly cloudy 3600 ft
2018/12/11 19:24 K0CO 111924Z AUTO 30034G44KT 7SM SCT036 M08/M15 A3007 RMK AO2
 
KGXY - Greeley/Weld, Colorado, USA
Distance from station: NE 41mi, 66km
Updated: Tue, 11-Dec-2018 11:56am MST
Clear
Clear
 Wind from ENE
Wind: ENE 6 mph , 9 km/h
Temperature: 50°F , 10°C
Wind Chill: 48°F , 9°C
Dew Point: 9°F , -13°C
Humidity: 19%
Barometer: 29.96 inHg , 1014.6 hPa
Clouds: Clear
Visibility: 10 miles , 16 km
2018/12/11 18:56 KGXY 111856Z AUTO 07005KT 10SM CLR 10/M13 A2996 RMK AO2 SLP165 T01001128